createdAt,value
2019-01-28T00:02:17.180Z,27.33
2019-01-28T00:04:45.712Z,24.63
2019-01-28T00:07:14.238Z,22.20
2019-01-28T00:09:42.527Z,23.73
2019-01-28T00:12:10.815Z,27.20
2019-01-28T00:14:39.101Z,24.93
2019-01-28T00:17:07.640Z,26.97
2019-01-28T00:19:35.921Z,23.80
2019-01-28T00:22:04.558Z,28.00
2019-01-28T00:24:32.840Z,23.63
2019-01-28T00:27:01.196Z,24.53
2019-01-28T00:29:29.406Z,22.47
2019-01-28T00:31:57.947Z,24.30
2019-01-28T00:34:26.462Z,23.17
2019-01-28T00:36:54.757Z,24.30
2019-01-28T00:39:23.039Z,24.20
2019-01-28T00:41:51.337Z,26.23
2019-01-28T00:44:19.613Z,27.50
2019-01-28T00:46:47.913Z,25.70
2019-01-28T00:49:16.196Z,25.57
2019-01-28T00:51:44.510Z,27.00
2019-01-28T00:54:12.798Z,27.73
2019-01-28T00:56:41.072Z,27.23
2019-01-28T00:59:09.383Z,25.70
2019-01-28T01:01:38.972Z,28.97
2019-01-28T01:04:07.703Z,29.37
2019-01-28T01:06:36.053Z,29.77
2019-01-28T01:09:06.908Z,30.10
2019-01-28T01:11:35.188Z,35.33
2019-01-28T01:14:03.485Z,29.87
2019-01-28T01:16:32.101Z,34.70
2019-01-28T01:19:00.399Z,40.33
2019-01-28T01:21:28.686Z,30.53
2019-01-28T01:23:56.980Z,42.73
2019-01-28T01:26:25.509Z,37.60
2019-01-28T01:28:53.801Z,39.03
2019-01-28T01:31:22.089Z,37.37
2019-01-28T01:33:50.369Z,28.10
2019-01-28T01:36:18.657Z,37.20
2019-01-28T01:38:46.937Z,36.23
2019-01-28T01:41:15.499Z,38.40
2019-01-28T01:43:44.047Z,33.10
2019-01-28T01:46:12.348Z,41.67
2019-01-28T01:48:40.903Z,37.60
2019-01-28T01:51:09.196Z,34.23
2019-01-28T01:53:37.466Z,32.37
2019-01-28T01:56:05.836Z,30.90
2019-01-28T01:58:34.114Z,28.70
2019-01-28T02:01:02.410Z,26.23
2019-01-28T02:03:30.697Z,27.57
2019-01-28T02:05:59.232Z,30.97
2019-01-28T02:08:27.774Z,35.40
2019-01-28T02:10:56.072Z,29.20
2019-01-28T02:13:24.351Z,28.33
2019-01-28T02:15:52.641Z,29.57
2019-01-28T02:18:20.917Z,26.60
2019-01-28T02:20:49.549Z,30.33
2019-01-28T02:23:18.069Z,40.93
2019-01-28T02:25:46.347Z,29.90
2019-01-28T02:28:14.653Z,34.43
2019-01-28T02:30:42.930Z,33.77
2019-01-28T02:33:11.295Z,44.57
2019-01-28T02:35:39.591Z,47.07
2019-01-28T02:38:07.872Z,38.27
2019-01-28T02:40:36.160Z,35.53
2019-01-28T02:43:04.521Z,36.20
2019-01-28T02:45:32.805Z,45.57
2019-01-28T02:48:01.106Z,44.00
2019-01-28T02:50:29.618Z,41.70
2019-01-28T02:52:58.174Z,40.70
2019-01-28T02:55:26.454Z,53.60
2019-01-28T02:57:54.760Z,46.90
2019-01-28T03:00:23.384Z,41.83
2019-01-28T03:02:51.657Z,42.67
2019-01-28T03:05:20.194Z,43.70
2019-01-28T03:07:48.532Z,45.40
2019-01-28T03:10:18.876Z,45.13
2019-01-28T03:12:47.147Z,69.87
2019-01-28T03:15:16.640Z,43.03
2019-01-28T03:17:44.988Z,44.43
2019-01-28T03:20:15.327Z,40.27
2019-01-28T03:22:43.680Z,48.27
2019-01-28T03:25:14.467Z,47.33
2019-01-28T03:27:42.742Z,48.07
2019-01-28T03:30:13.870Z,61.73
2019-01-28T03:32:42.152Z,51.90
2019-01-28T03:35:10.724Z,68.23
2019-01-28T03:37:39.001Z,51.47
2019-01-28T03:40:10.464Z,57.67
2019-01-28T03:42:38.741Z,58.60
2019-01-28T03:45:10.440Z,53.83
2019-01-28T03:47:38.718Z,46.70
2019-01-28T03:50:10.102Z,53.20
2019-01-28T03:52:38.378Z,57.97
2019-01-28T03:55:09.988Z,55.17
2019-01-28T03:57:38.298Z,54.93
2019-01-28T04:00:12.745Z,66.93
2019-01-28T04:02:41.042Z,51.90
2019-01-28T04:05:10.950Z,48.87
2019-01-28T04:07:39.487Z,57.53
2019-01-28T04:10:19.635Z,58.40
2019-01-28T04:12:48.243Z,65.50
2019-01-28T04:15:18.810Z,59.33
2019-01-28T04:17:47.167Z,56.23
2019-01-28T04:20:16.283Z,57.17
2019-01-28T04:22:44.650Z,64.87
2019-01-28T04:25:13.647Z,67.40
2019-01-28T04:27:42.014Z,57.77
2019-01-28T04:30:18.670Z,62.33
2019-01-28T04:32:47.030Z,64.60
2019-01-28T04:35:15.477Z,65.70
2019-01-28T04:37:43.839Z,68.40
2019-01-28T04:40:14.057Z,65.83
2019-01-28T04:42:42.661Z,68.57
2019-01-28T04:45:13.297Z,75.07
2019-01-28T04:47:41.575Z,59.90
2019-01-28T04:50:12.611Z,67.47
2019-01-28T04:52:40.894Z,53.63
2019-01-28T04:55:10.828Z,61.27
2019-01-28T04:57:39.364Z,66.97
2019-01-28T05:00:18.839Z,59.20
2019-01-28T05:02:47.372Z,56.43
2019-01-28T05:05:15.750Z,58.67
2019-01-28T05:07:44.275Z,62.73
2019-01-28T05:10:20.050Z,64.37
2019-01-28T05:12:48.475Z,58.80
2019-01-28T05:15:20.455Z,62.60
2019-01-28T05:17:48.717Z,55.67
2019-01-28T05:20:20.168Z,60.27
2019-01-28T05:22:48.566Z,59.80
2019-01-28T05:25:17.465Z,66.03
2019-01-28T05:27:46.274Z,60.80
2019-01-28T05:30:16.909Z,67.70
2019-01-28T05:32:45.639Z,68.53
2019-01-28T05:35:16.604Z,60.30
2019-01-28T05:37:44.880Z,65.67
2019-01-28T05:40:18.618Z,63.87
2019-01-28T05:42:46.840Z,56.63
2019-01-28T05:45:23.369Z,59.10
2019-01-28T05:47:51.645Z,60.87
2019-01-28T05:50:20.007Z,93.87
2019-01-28T05:52:52.250Z,60.13
2019-01-28T05:55:20.715Z,63.87
2019-01-28T05:57:49.054Z,57.47
2019-01-28T06:00:27.339Z,64.57
2019-01-28T06:02:55.615Z,65.47
2019-01-28T06:05:23.897Z,65.67
2019-01-28T06:07:53.202Z,79.23
2019-01-28T06:10:21.572Z,64.37
2019-01-28T06:12:49.873Z,207.27
2019-01-28T06:15:19.353Z,71.40
2019-01-28T06:17:47.708Z,64.87
2019-01-28T06:20:19.172Z,64.77
2019-01-28T06:22:47.781Z,70.23
2019-01-28T06:25:16.409Z,68.57
2019-01-28T06:27:44.711Z,73.63
2019-01-28T06:30:16.090Z,78.00
2019-01-28T06:32:44.393Z,73.03
2019-01-28T06:35:12.759Z,75.53
2019-01-28T06:37:41.043Z,81.53
2019-01-28T06:40:15.194Z,72.63
2019-01-28T06:42:43.487Z,81.93
2019-01-28T06:45:13.945Z,84.53
2019-01-28T06:47:46.680Z,85.37
2019-01-28T06:50:15.448Z,91.37
2019-01-28T06:52:43.990Z,86.43
2019-01-28T06:55:12.457Z,82.53
2019-01-28T06:57:40.749Z,86.40
2019-01-28T07:00:23.569Z,83.30
2019-01-28T07:02:51.916Z,78.60
2019-01-28T07:05:20.203Z,79.53
2019-01-28T07:07:48.502Z,84.53
2019-01-28T07:10:17.124Z,84.20
2019-01-28T07:12:45.449Z,83.37
2019-01-28T07:15:18.539Z,96.37
2019-01-28T07:17:54.393Z,104.77
2019-01-28T07:20:19.623Z,81.20
2019-01-28T07:22:47.924Z,81.63
2019-01-28T07:25:16.280Z,77.17
2019-01-28T07:27:44.629Z,77.27
2019-01-28T07:30:23.040Z,79.33
2019-01-28T07:32:51.600Z,78.60
2019-01-28T07:35:26.922Z,79.20
2019-01-28T07:37:55.272Z,75.60
2019-01-28T07:40:23.806Z,83.43
2019-01-28T07:42:52.081Z,84.60
2019-01-28T07:45:26.197Z,75.60
2019-01-28T07:48:02.460Z,82.53
2019-01-28T07:50:25.152Z,82.67
2019-01-28T07:52:53.614Z,85.43
2019-01-28T07:55:22.227Z,86.97
2019-01-28T07:57:50.756Z,77.87
2019-01-28T08:00:25.175Z,88.57
2019-01-28T08:02:53.524Z,86.43
2019-01-28T08:05:21.888Z,81.83
2019-01-28T08:07:50.171Z,79.60
2019-01-28T08:10:20.004Z,87.10
2019-01-28T08:12:48.758Z,81.30
2019-01-28T08:15:19.846Z,86.73
2019-01-28T08:17:48.282Z,81.60
2019-01-28T08:20:17.906Z,91.47
2019-01-28T08:22:46.339Z,89.50
2019-01-28T08:25:19.177Z,85.27
2019-01-28T08:27:47.787Z,80.23
2019-01-28T08:30:21.591Z,93.97
2019-01-28T08:32:49.908Z,107.90
2019-01-28T08:35:18.436Z,95.60
2019-01-28T08:37:46.727Z,93.93
2019-01-28T08:40:17.126Z,83.13
2019-01-28T08:42:45.406Z,88.77
2019-01-28T08:45:13.880Z,87.13
2019-01-28T08:47:42.194Z,93.30
2019-01-28T08:50:13.503Z,92.67
2019-01-28T08:52:42.021Z,90.67
2019-01-28T08:55:14.603Z,93.43
2019-01-28T08:57:43.008Z,90.70
2019-01-28T09:00:15.120Z,91.67
2019-01-28T09:02:43.433Z,83.47
2019-01-28T09:05:12.847Z,88.80
2019-01-28T09:07:41.129Z,98.47
2019-01-28T09:10:12.679Z,100.87
2019-01-28T09:12:40.971Z,91.10
2019-01-28T09:15:12.819Z,101.53
2019-01-28T09:17:41.178Z,95.70
2019-01-28T09:20:12.296Z,95.40
2019-01-28T09:22:40.593Z,101.17
2019-01-28T09:25:11.477Z,112.37
2019-01-28T09:27:39.932Z,104.33
2019-01-28T09:30:13.913Z,119.10
2019-01-28T09:32:43.533Z,100.00
2019-01-28T09:35:12.077Z,114.57
2019-01-28T09:37:40.464Z,110.73
2019-01-28T09:40:11.913Z,106.47
2019-01-28T09:42:40.301Z,107.60
2019-01-28T09:45:12.015Z,108.43
2019-01-28T09:47:40.364Z,112.87
2019-01-28T09:50:11.407Z,107.67
2019-01-28T09:52:39.772Z,116.57
2019-01-28T09:55:13.577Z,116.47
2019-01-28T09:57:41.942Z,161.00
2019-01-28T10:00:26.481Z,120.73
2019-01-28T10:02:54.988Z,107.90
2019-01-28T10:05:23.437Z,112.43
2019-01-28T10:07:51.987Z,114.60
2019-01-28T10:10:20.831Z,125.07
2019-01-28T10:12:49.122Z,119.67
2019-01-28T10:15:22.687Z,115.63
2019-01-28T10:17:51.056Z,121.03
2019-01-28T10:20:22.545Z,130.23
2019-01-28T10:22:51.107Z,128.33
2019-01-28T10:25:19.384Z,121.07
2019-01-28T10:27:47.780Z,123.60
2019-01-28T10:30:19.722Z,118.47
2019-01-28T10:32:48.010Z,132.97
2019-01-28T10:35:16.573Z,126.70
2019-01-28T10:37:45.022Z,121.80
2019-01-28T10:40:16.481Z,132.70
2019-01-28T10:42:45.022Z,156.73
2019-01-28T10:45:14.449Z,130.90
2019-01-28T10:47:42.818Z,127.70
2019-01-28T10:50:17.000Z,121.57
2019-01-28T10:52:45.474Z,123.97
2019-01-28T10:55:16.762Z,120.90
2019-01-28T10:57:45.132Z,139.90
2019-01-28T11:00:28.117Z,127.87
2019-01-28T11:02:57.014Z,120.77
2019-01-28T11:05:25.385Z,118.90
2019-01-28T11:07:53.922Z,118.77
2019-01-28T11:10:28.984Z,127.50
2019-01-28T11:12:58.047Z,128.53
2019-01-28T11:15:30.612Z,129.57
2019-01-28T11:18:01.768Z,124.50
2019-01-28T11:20:30.228Z,119.33
2019-01-28T11:22:58.533Z,128.47
2019-01-28T11:25:31.773Z,132.73
2019-01-28T11:28:00.464Z,125.20
2019-01-28T11:30:35.839Z,121.50
2019-01-28T11:33:04.368Z,144.23
2019-01-28T11:35:32.775Z,116.97
2019-01-28T11:38:01.116Z,119.17
2019-01-28T11:40:29.518Z,156.57
2019-01-28T11:42:57.742Z,126.97
2019-01-28T11:45:29.120Z,121.33
2019-01-28T11:47:57.495Z,118.03
2019-01-28T11:50:26.118Z,135.33
2019-01-28T11:52:54.644Z,131.93
2019-01-28T11:55:22.949Z,132.37
2019-01-28T11:57:51.490Z,128.17
2019-01-28T12:00:36.024Z,133.37
2019-01-28T12:03:04.389Z,123.63
2019-01-28T12:05:32.692Z,119.77
2019-01-28T12:08:00.981Z,226.20
2019-01-28T12:10:29.360Z,147.40
2019-01-28T12:12:57.649Z,142.40
2019-01-28T12:15:25.955Z,104.77
2019-01-28T12:17:54.304Z,118.10
2019-01-28T12:20:23.871Z,99.17
2019-01-28T12:22:52.340Z,105.50
2019-01-28T12:25:20.701Z,119.63
2019-01-28T12:27:49.007Z,95.37
2019-01-28T12:30:26.163Z,95.80
2019-01-28T12:32:54.526Z,97.27
2019-01-28T12:35:22.884Z,99.03
2019-01-28T12:37:51.176Z,99.60
2019-01-28T12:40:20.995Z,90.90
2019-01-28T12:42:49.539Z,96.47
2019-01-28T12:45:26.645Z,114.67
2019-01-28T12:47:55.184Z,96.50
2019-01-28T12:50:24.517Z,98.30
2019-01-28T12:52:53.089Z,82.90
2019-01-28T12:55:25.079Z,114.53
2019-01-28T12:57:53.435Z,100.07
2019-01-28T13:00:40.012Z,105.10
2019-01-28T13:03:09.137Z,91.83
2019-01-28T13:05:37.677Z,94.80
2019-01-28T13:08:07.003Z,98.73
2019-01-28T13:10:35.367Z,92.63
2019-01-28T13:13:03.795Z,100.10
2019-01-28T13:15:33.496Z,94.57
2019-01-28T13:18:02.036Z,120.37
2019-01-28T13:20:30.649Z,242.90
2019-01-28T13:22:59.031Z,92.33
2019-01-28T13:25:32.116Z,92.03
2019-01-28T13:28:00.410Z,91.20
2019-01-28T13:30:34.556Z,97.17
2019-01-28T13:33:03.291Z,80.20
2019-01-28T13:35:31.647Z,83.63
2019-01-28T13:38:00.212Z,121.23
2019-01-28T13:40:28.494Z,89.87
2019-01-28T13:42:56.864Z,88.70
2019-01-28T13:45:25.377Z,77.70
2019-01-28T13:47:53.951Z,74.47
2019-01-28T13:50:24.707Z,81.67
2019-01-28T13:52:53.252Z,85.30
2019-01-28T13:55:23.031Z,137.27
2019-01-28T13:57:51.673Z,114.37
2019-01-28T14:00:24.847Z,64.70
2019-01-28T14:02:53.372Z,68.90
2019-01-28T14:05:22.933Z,70.87
2019-01-28T14:07:51.287Z,70.27
2019-01-28T14:10:21.233Z,84.37
2019-01-28T14:12:49.654Z,93.80
2019-01-28T14:15:21.218Z,83.57
2019-01-28T14:17:49.520Z,101.67
2019-01-28T14:20:20.383Z,100.30
2019-01-28T14:22:48.663Z,94.87
2019-01-28T14:25:17.101Z,88.20
2019-01-28T14:27:49.675Z,103.23
2019-01-28T14:30:21.864Z,101.17
2019-01-28T14:32:51.201Z,99.07
2019-01-28T14:35:19.565Z,105.77
2019-01-28T14:37:47.878Z,123.97
2019-01-28T14:40:21.777Z,100.33
2019-01-28T14:42:50.061Z,92.10
2019-01-28T14:45:18.432Z,95.50
2019-01-28T14:47:46.815Z,98.47
2019-01-28T14:50:26.758Z,91.83
2019-01-28T14:52:55.429Z,82.33
2019-01-28T14:55:24.257Z,81.03
2019-01-28T14:57:52.778Z,80.67
2019-01-28T15:00:26.589Z,77.87
2019-01-28T15:02:54.948Z,75.37
2019-01-28T15:05:23.306Z,69.60
2019-01-28T15:07:51.956Z,76.17
2019-01-28T15:10:21.004Z,70.20
2019-01-28T15:12:49.731Z,73.07
2019-01-28T15:15:20.725Z,79.80
2019-01-28T15:17:49.092Z,70.10
2019-01-28T15:20:17.442Z,59.57
2019-01-28T15:22:45.802Z,72.70
2019-01-28T15:25:16.359Z,65.87
2019-01-28T15:27:44.715Z,75.00
2019-01-28T15:30:16.042Z,67.33
2019-01-28T15:32:44.835Z,70.10
2019-01-28T15:35:13.200Z,71.60
2019-01-28T15:37:41.598Z,70.83
2019-01-28T15:40:13.342Z,77.17
2019-01-28T15:42:41.734Z,81.03
2019-01-28T15:45:13.418Z,94.10
2019-01-28T15:47:42.047Z,87.20
2019-01-28T15:50:13.183Z,67.13
2019-01-28T15:52:41.582Z,63.40
2019-01-28T15:55:13.061Z,40.13
2019-01-28T15:57:41.391Z,44.13
2019-01-28T16:00:18.204Z,43.57
2019-01-28T16:02:46.554Z,33.20
2019-01-28T16:05:14.856Z,94.10
2019-01-28T16:07:43.446Z,25.97
2019-01-28T16:10:17.076Z,25.53
2019-01-28T16:12:45.806Z,26.60
2019-01-28T16:15:29.101Z,24.03
2019-01-28T16:17:57.697Z,24.77
2019-01-28T16:20:26.334Z,26.07
2019-01-28T16:22:54.750Z,25.07
2019-01-28T16:25:23.214Z,22.40
2019-01-28T16:27:51.491Z,19.10
2019-01-28T16:30:26.529Z,20.07
2019-01-28T16:32:55.035Z,20.13
2019-01-28T16:35:23.511Z,18.00
2019-01-28T16:37:53.018Z,19.17
2019-01-28T16:40:26.319Z,20.13
2019-01-28T16:42:55.424Z,19.23
2019-01-28T16:45:23.866Z,18.40
2019-01-28T16:47:52.228Z,18.33
2019-01-28T16:50:27.064Z,18.13
2019-01-28T16:52:55.604Z,19.77
2019-01-28T16:55:24.235Z,18.93
2019-01-28T16:57:52.759Z,20.17
2019-01-28T17:00:24.310Z,20.97
2019-01-28T17:02:52.606Z,20.87
2019-01-28T17:05:21.308Z,20.60
2019-01-28T17:07:49.809Z,21.40
2019-01-28T17:10:18.417Z,20.80
2019-01-28T17:12:46.707Z,20.47
2019-01-28T17:15:20.401Z,19.80
2019-01-28T17:17:49.032Z,19.60
2019-01-28T17:20:20.468Z,19.87
2019-01-28T17:22:48.985Z,20.33
2019-01-28T17:25:20.275Z,23.27
2019-01-28T17:27:48.825Z,24.30
2019-01-28T17:30:26.447Z,26.70
2019-01-28T17:32:54.837Z,30.73
2019-01-28T17:35:23.180Z,32.60
2019-01-28T17:37:51.487Z,31.47
2019-01-28T17:40:22.925Z,32.63
2019-01-28T17:42:51.232Z,33.37
2019-01-28T17:45:20.424Z,33.90
2019-01-28T17:47:49.226Z,32.53
2019-01-28T17:50:24.441Z,32.30
2019-01-28T17:52:47.600Z,32.47
2019-01-28T17:55:16.275Z,27.63
2019-01-28T17:57:44.986Z,30.00
2019-01-28T18:00:16.560Z,44.73
2019-01-28T18:02:44.852Z,47.10
2019-01-28T18:05:13.299Z,29.83
2019-01-28T18:07:41.872Z,35.53
2019-01-28T18:10:15.137Z,30.70
2019-01-28T18:12:43.439Z,37.63
2019-01-28T18:15:14.766Z,31.37
2019-01-28T18:17:43.056Z,39.83
2019-01-28T18:20:14.772Z,35.23
2019-01-28T18:22:44.932Z,32.10
2019-01-28T18:25:18.875Z,33.40
2019-01-28T18:27:47.236Z,32.57
2019-01-28T18:30:22.411Z,37.37
2019-01-28T18:32:50.706Z,42.33
2019-01-28T18:35:18.984Z,46.47
2019-01-28T18:37:47.292Z,42.63
2019-01-28T18:40:18.988Z,41.97
2019-01-28T18:42:47.602Z,40.90
2019-01-28T18:45:20.333Z,49.53
2019-01-28T18:47:49.009Z,42.37
2019-01-28T18:50:20.487Z,42.67
2019-01-28T18:52:49.130Z,43.83
2019-01-28T18:55:21.906Z,43.93
2019-01-28T18:57:50.401Z,46.23
2019-01-28T19:00:29.743Z,45.43
2019-01-28T19:02:58.504Z,46.37
2019-01-28T19:05:43.623Z,47.23
2019-01-28T19:08:13.664Z,45.93
2019-01-28T19:10:43.616Z,47.67
2019-01-28T19:13:13.814Z,48.33
2019-01-28T19:15:46.509Z,50.93
2019-01-28T19:18:16.469Z,48.77
2019-01-28T19:20:49.334Z,49.33
2019-01-28T19:23:17.882Z,45.70
2019-01-28T19:25:46.356Z,48.23
2019-01-28T19:28:16.636Z,47.43
2019-01-28T19:30:46.559Z,44.40
2019-01-28T19:33:14.917Z,42.27
2019-01-28T19:35:43.577Z,42.43
2019-01-28T19:38:11.903Z,46.43
2019-01-28T19:40:40.204Z,47.90
2019-01-28T19:43:08.750Z,42.67
2019-01-28T19:45:37.055Z,40.17
2019-01-28T19:48:05.767Z,39.57
2019-01-28T19:50:34.325Z,38.73
2019-01-28T19:53:02.875Z,40.20
2019-01-28T19:55:32.030Z,38.33
2019-01-28T19:58:00.326Z,36.07
2019-01-28T20:00:28.682Z,38.90
2019-01-28T20:02:58.353Z,37.93
2019-01-28T20:05:26.668Z,36.23
2019-01-28T20:07:55.246Z,35.13
2019-01-28T20:10:23.846Z,36.33
2019-01-28T20:12:52.215Z,36.53
2019-01-28T20:15:22.347Z,35.97
2019-01-28T20:17:50.698Z,34.67
2019-01-28T20:20:19.717Z,35.50
2019-01-28T20:22:48.079Z,32.77
2019-01-28T20:25:17.603Z,34.60
2019-01-28T20:27:45.990Z,34.63
2019-01-28T20:30:23.751Z,32.57
2019-01-28T20:32:52.115Z,32.83
2019-01-28T20:35:20.529Z,31.60
2019-01-28T20:37:48.822Z,30.30
2019-01-28T20:40:17.282Z,30.77
2019-01-28T20:42:45.704Z,33.53
2019-01-28T20:45:25.304Z,34.33
2019-01-28T20:47:55.489Z,30.23
2019-01-28T20:50:26.459Z,33.00
2019-01-28T20:52:54.830Z,32.17
2019-01-28T20:55:23.491Z,34.50
2019-01-28T20:57:51.795Z,32.53
2019-01-28T21:00:22.772Z,32.23
2019-01-28T21:02:51.131Z,33.50
2019-01-28T21:05:20.895Z,35.33
2019-01-28T21:07:49.215Z,32.73
2019-01-28T21:10:19.454Z,32.23
2019-01-28T21:12:47.929Z,32.23
2019-01-28T21:15:17.273Z,35.17
2019-01-28T21:17:46.926Z,34.30
2019-01-28T21:20:17.889Z,32.83
2019-01-28T21:22:46.427Z,32.03
2019-01-28T21:25:19.965Z,32.50
2019-01-28T21:27:48.279Z,29.43
2019-01-28T21:30:19.814Z,30.97
2019-01-28T21:32:48.261Z,31.37
2019-01-28T21:35:16.804Z,32.37
2019-01-28T21:37:49.669Z,32.60
2019-01-28T21:40:18.217Z,31.53
2019-01-28T21:42:46.816Z,30.23
2019-01-28T21:45:15.999Z,30.67
2019-01-28T21:47:55.822Z,29.60
2019-01-28T21:50:25.757Z,31.40
2019-01-28T21:52:54.623Z,32.10
2019-01-28T21:55:22.924Z,31.47
2019-01-28T21:57:51.454Z,27.80
2019-01-28T22:00:20.263Z,29.00
2019-01-28T22:02:48.935Z,30.87
2019-01-28T22:05:17.376Z,30.50
2019-01-28T22:07:45.928Z,29.97
2019-01-28T22:10:15.465Z,28.27
2019-01-28T22:12:44.084Z,29.97
2019-01-28T22:15:17.035Z,27.20
2019-01-28T22:17:45.387Z,30.17
2019-01-28T22:20:15.419Z,30.40
2019-01-28T22:22:43.770Z,28.13
2019-01-28T22:25:14.155Z,31.03
2019-01-28T22:27:42.691Z,28.57
2019-01-28T22:30:20.160Z,29.70
2019-01-28T22:32:48.474Z,28.33
2019-01-28T22:35:16.767Z,29.37
2019-01-28T22:37:45.607Z,27.90
2019-01-28T22:40:15.733Z,30.37
2019-01-28T22:42:44.030Z,29.80
2019-01-28T22:45:14.866Z,30.90
2019-01-28T22:47:43.504Z,30.20
2019-01-28T22:50:14.286Z,30.33
2019-01-28T22:52:43.701Z,29.70
2019-01-28T22:55:22.560Z,29.40
2019-01-28T22:57:51.185Z,30.33
2019-01-28T23:00:24.271Z,29.80
2019-01-28T23:02:52.817Z,27.00
2019-01-28T23:05:21.101Z,28.67
2019-01-28T23:07:49.388Z,30.70
2019-01-28T23:10:17.761Z,30.30
2019-01-28T23:12:46.037Z,31.27
2019-01-28T23:15:14.406Z,32.73
2019-01-28T23:17:42.939Z,28.73
2019-01-28T23:20:11.320Z,29.23
2019-01-28T23:22:39.599Z,30.67
2019-01-28T23:25:08.203Z,29.97
2019-01-28T23:27:36.492Z,31.93
2019-01-28T23:30:07.613Z,26.53
2019-01-28T23:32:35.966Z,28.70
2019-01-28T23:35:06.566Z,27.63
2019-01-28T23:37:35.104Z,28.80
2019-01-28T23:40:04.441Z,29.37
2019-01-28T23:42:32.725Z,30.67
2019-01-28T23:45:01.027Z,28.93
2019-01-28T23:47:29.571Z,30.13
2019-01-28T23:49:57.857Z,31.40
2019-01-28T23:52:26.163Z,29.83
2019-01-28T23:54:54.703Z,30.43
2019-01-28T23:57:22.998Z,30.80
2019-01-28T23:59:51.290Z,30.60
